sensor_id;sensor_type;location;lat;lon;timestamp;P1;durP1;ratioP1;P2;durP2;ratioP2
1679;SDS011;838;51.794;12.258;2023-07-13T00:00:22;3.50;;;1.90;;
1679;SDS011;838;51.794;12.258;2023-07-13T00:02:51;3.00;;;2.13;;
1679;SDS011;838;51.794;12.258;2023-07-13T00:05:19;3.73;;;2.20;;
1679;SDS011;838;51.794;12.258;2023-07-13T00:07:52;3.10;;;1.90;;
1679;SDS011;838;51.794;12.258;2023-07-13T00:10:19;3.97;;;1.90;;
1679;SDS011;838;51.794;12.258;2023-07-13T00:12:45;4.10;;;1.50;;
1679;SDS011;838;51.794;12.258;2023-07-13T00:15:21;3.00;;;1.70;;
1679;SDS011;838;51.794;12.258;2023-07-13T00:17:53;3.33;;;1.70;;
1679;SDS011;838;51.794;12.258;2023-07-13T00:20:20;3.73;;;1.77;;
1679;SDS011;838;51.794;12.258;2023-07-13T00:22:51;4.20;;;1.97;;
1679;SDS011;838;51.794;12.258;2023-07-13T00:25:21;7.63;;;1.87;;
1679;SDS011;838;51.794;12.258;2023-07-13T00:27:52;4.07;;;1.83;;
1679;SDS011;838;51.794;12.258;2023-07-13T00:30:21;3.30;;;1.67;;
1679;SDS011;838;51.794;12.258;2023-07-13T00:33:15;3.63;;;1.90;;
1679;SDS011;838;51.794;12.258;2023-07-13T00:35:44;4.07;;;1.60;;
1679;SDS011;838;51.794;12.258;2023-07-13T00:38:19;3.53;;;1.87;;
1679;SDS011;838;51.794;12.258;2023-07-13T00:40:45;5.00;;;2.00;;
1679;SDS011;838;51.794;12.258;2023-07-13T00:43:38;3.10;;;2.07;;
1679;SDS011;838;51.794;12.258;2023-07-13T00:48:54;4.10;;;2.07;;
1679;SDS011;838;51.794;12.258;2023-07-13T00:51:24;3.30;;;1.97;;
1679;SDS011;838;51.794;12.258;2023-07-13T00:53:58;3.47;;;1.70;;
1679;SDS011;838;51.794;12.258;2023-07-13T00:56:31;3.53;;;2.00;;
1679;SDS011;838;51.794;12.258;2023-07-13T00:59:23;4.20;;;2.07;;
1679;SDS011;838;51.794;12.258;2023-07-13T01:01:50;3.87;;;2.40;;
1679;SDS011;838;51.794;12.258;2023-07-13T01:04:17;3.30;;;1.90;;
1679;SDS011;838;51.794;12.258;2023-07-13T01:06:49;4.57;;;2.13;;
1679;SDS011;838;51.794;12.258;2023-07-13T01:09:43;4.70;;;2.10;;
1679;SDS011;838;51.794;12.258;2023-07-13T01:12:15;4.80;;;2.00;;
1679;SDS011;838;51.794;12.258;2023-07-13T01:14:44;3.30;;;1.87;;
1679;SDS011;838;51.794;12.258;2023-07-13T01:17:10;4.60;;;2.23;;
1679;SDS011;838;51.794;12.258;2023-07-13T01:19:43;3.10;;;2.40;;
1679;SDS011;838;51.794;12.258;2023-07-13T01:22:11;4.50;;;2.17;;
1679;SDS011;838;51.794;12.258;2023-07-13T01:24:42;3.80;;;1.77;;
1679;SDS011;838;51.794;12.258;2023-07-13T01:27:10;3.90;;;2.33;;
1679;SDS011;838;51.794;12.258;2023-07-13T01:29:40;3.00;;;2.20;;
1679;SDS011;838;51.794;12.258;2023-07-13T01:32:15;2.70;;;2.13;;
1679;SDS011;838;51.794;12.258;2023-07-13T01:34:47;3.53;;;2.20;;
1679;SDS011;838;51.794;12.258;2023-07-13T01:37:13;2.90;;;2.20;;
1679;SDS011;838;51.794;12.258;2023-07-13T01:39:39;5.10;;;2.50;;
1679;SDS011;838;51.794;12.258;2023-07-13T01:42:06;3.13;;;2.00;;
1679;SDS011;838;51.794;12.258;2023-07-13T01:44:32;4.90;;;2.50;;
1679;SDS011;838;51.794;12.258;2023-07-13T01:46:57;3.00;;;1.97;;
1679;SDS011;838;51.794;12.258;2023-07-13T01:49:24;4.10;;;1.97;;
1679;SDS011;838;51.794;12.258;2023-07-13T01:51:49;6.13;;;2.40;;
1679;SDS011;838;51.794;12.258;2023-07-13T01:54:15;3.87;;;2.23;;
1679;SDS011;838;51.794;12.258;2023-07-13T01:56:41;3.97;;;2.47;;
1679;SDS011;838;51.794;12.258;2023-07-13T01:59:07;3.93;;;2.33;;
1679;SDS011;838;51.794;12.258;2023-07-13T02:01:34;2.80;;;2.03;;
1679;SDS011;838;51.794;12.258;2023-07-13T02:04:00;3.77;;;2.90;;
1679;SDS011;838;51.794;12.258;2023-07-13T02:06:25;3.00;;;2.07;;
1679;SDS011;838;51.794;12.258;2023-07-13T02:08:51;3.80;;;2.20;;
1679;SDS011;838;51.794;12.258;2023-07-13T02:11:17;4.83;;;2.60;;
1679;SDS011;838;51.794;12.258;2023-07-13T02:13:49;3.30;;;2.43;;
1679;SDS011;838;51.794;12.258;2023-07-13T02:16:18;3.73;;;2.30;;
1679;SDS011;838;51.794;12.258;2023-07-13T02:18:43;3.60;;;2.50;;
1679;SDS011;838;51.794;12.258;2023-07-13T02:21:09;3.50;;;2.23;;
1679;SDS011;838;51.794;12.258;2023-07-13T02:23:35;3.70;;;2.33;;
1679;SDS011;838;51.794;12.258;2023-07-13T02:26:01;4.50;;;2.77;;
1679;SDS011;838;51.794;12.258;2023-07-13T02:28:38;4.37;;;2.60;;
1679;SDS011;838;51.794;12.258;2023-07-13T02:31:08;5.97;;;3.33;;
1679;SDS011;838;51.794;12.258;2023-07-13T02:33:37;4.23;;;2.50;;
1679;SDS011;838;51.794;12.258;2023-07-13T02:36:19;3.27;;;2.20;;
1679;SDS011;838;51.794;12.258;2023-07-13T02:38:45;3.97;;;2.30;;
1679;SDS011;838;51.794;12.258;2023-07-13T02:41:10;3.73;;;2.50;;
1679;SDS011;838;51.794;12.258;2023-07-13T02:43:37;3.77;;;2.50;;
1679;SDS011;838;51.794;12.258;2023-07-13T02:46:03;4.50;;;2.77;;
1679;SDS011;838;51.794;12.258;2023-07-13T02:48:34;4.00;;;2.27;;
1679;SDS011;838;51.794;12.258;2023-07-13T02:51:01;3.80;;;2.30;;
1679;SDS011;838;51.794;12.258;2023-07-13T02:53:27;3.17;;;2.17;;
1679;SDS011;838;51.794;12.258;2023-07-13T02:55:53;3.60;;;2.30;;
1679;SDS011;838;51.794;12.258;2023-07-13T02:58:18;4.23;;;2.27;;
1679;SDS011;838;51.794;12.258;2023-07-13T03:00:45;3.07;;;2.20;;
1679;SDS011;838;51.794;12.258;2023-07-13T03:03:15;3.80;;;2.50;;
1679;SDS011;838;51.794;12.258;2023-07-13T03:05:44;3.60;;;2.50;;
1679;SDS011;838;51.794;12.258;2023-07-13T03:08:15;3.63;;;2.80;;
1679;SDS011;838;51.794;12.258;2023-07-13T03:10:43;3.90;;;2.53;;
1679;SDS011;838;51.794;12.258;2023-07-13T03:13:09;3.63;;;2.53;;
1679;SDS011;838;51.794;12.258;2023-07-13T03:15:35;5.07;;;2.90;;
1679;SDS011;838;51.794;12.258;2023-07-13T03:18:06;6.10;;;3.10;;
1679;SDS011;838;51.794;12.258;2023-07-13T03:20:35;3.90;;;2.70;;
1679;SDS011;838;51.794;12.258;2023-07-13T03:23:01;5.70;;;2.90;;
1679;SDS011;838;51.794;12.258;2023-07-13T03:25:32;4.90;;;2.93;;
1679;SDS011;838;51.794;12.258;2023-07-13T03:27:57;5.97;;;2.70;;
1679;SDS011;838;51.794;12.258;2023-07-13T03:30:23;4.60;;;3.17;;
1679;SDS011;838;51.794;12.258;2023-07-13T03:32:49;4.10;;;2.33;;
1679;SDS011;838;51.794;12.258;2023-07-13T03:35:15;3.40;;;2.80;;
1679;SDS011;838;51.794;12.258;2023-07-13T03:37:46;3.60;;;2.83;;
1679;SDS011;838;51.794;12.258;2023-07-13T03:40:18;6.03;;;3.07;;
1679;SDS011;838;51.794;12.258;2023-07-13T03:42:44;5.33;;;3.10;;
1679;SDS011;838;51.794;12.258;2023-07-13T03:45:10;3.67;;;2.40;;
1679;SDS011;838;51.794;12.258;2023-07-13T03:47:36;3.17;;;2.30;;
1679;SDS011;838;51.794;12.258;2023-07-13T03:50:02;4.60;;;2.90;;
1679;SDS011;838;51.794;12.258;2023-07-13T03:52:28;4.80;;;3.43;;
1679;SDS011;838;51.794;12.258;2023-07-13T03:54:57;4.23;;;2.50;;
1679;SDS011;838;51.794;12.258;2023-07-13T03:57:23;3.17;;;2.40;;
1679;SDS011;838;51.794;12.258;2023-07-13T03:59:49;3.40;;;2.33;;
1679;SDS011;838;51.794;12.258;2023-07-13T04:02:14;4.87;;;3.10;;
1679;SDS011;838;51.794;12.258;2023-07-13T04:04:43;4.43;;;3.23;;
1679;SDS011;838;51.794;12.258;2023-07-13T04:07:09;6.40;;;2.90;;
1679;SDS011;838;51.794;12.258;2023-07-13T04:09:41;5.70;;;3.00;;
1679;SDS011;838;51.794;12.258;2023-07-13T04:12:07;3.90;;;2.93;;
1679;SDS011;838;51.794;12.258;2023-07-13T04:14:33;4.40;;;3.27;;
1679;SDS011;838;51.794;12.258;2023-07-13T04:16:59;4.53;;;2.80;;
1679;SDS011;838;51.794;12.258;2023-07-13T04:19:24;6.50;;;2.87;;
1679;SDS011;838;51.794;12.258;2023-07-13T04:21:50;6.33;;;3.53;;
1679;SDS011;838;51.794;12.258;2023-07-13T04:24:16;4.10;;;2.87;;
1679;SDS011;838;51.794;12.258;2023-07-13T04:26:48;5.73;;;2.70;;
1679;SDS011;838;51.794;12.258;2023-07-13T04:29:15;4.23;;;3.03;;
1679;SDS011;838;51.794;12.258;2023-07-13T04:31:40;5.10;;;2.90;;
1679;SDS011;838;51.794;12.258;2023-07-13T04:34:06;6.20;;;3.33;;
1679;SDS011;838;51.794;12.258;2023-07-13T04:36:32;4.27;;;2.70;;
1679;SDS011;838;51.794;12.258;2023-07-13T04:38:58;4.43;;;2.60;;
1679;SDS011;838;51.794;12.258;2023-07-13T04:41:26;3.67;;;2.67;;
1679;SDS011;838;51.794;12.258;2023-07-13T04:43:53;5.30;;;2.90;;
1679;SDS011;838;51.794;12.258;2023-07-13T04:46:18;3.40;;;2.40;;
1679;SDS011;838;51.794;12.258;2023-07-13T04:48:44;5.30;;;3.07;;
1679;SDS011;838;51.794;12.258;2023-07-13T04:51:16;6.23;;;3.10;;
1679;SDS011;838;51.794;12.258;2023-07-13T04:53:44;4.53;;;3.23;;
1679;SDS011;838;51.794;12.258;2023-07-13T04:56:10;4.03;;;2.70;;
1679;SDS011;838;51.794;12.258;2023-07-13T04:58:36;3.83;;;2.67;;
1679;SDS011;838;51.794;12.258;2023-07-13T05:01:05;6.93;;;2.63;;
1679;SDS011;838;51.794;12.258;2023-07-13T05:03:32;5.83;;;3.03;;
1679;SDS011;838;51.794;12.258;2023-07-13T05:06:00;3.47;;;2.60;;
1679;SDS011;838;51.794;12.258;2023-07-13T05:08:27;3.87;;;2.20;;
1679;SDS011;838;51.794;12.258;2023-07-13T05:10:56;4.60;;;2.83;;
1679;SDS011;838;51.794;12.258;2023-07-13T05:13:24;4.23;;;2.80;;
1679;SDS011;838;51.794;12.258;2023-07-13T05:15:59;6.17;;;3.47;;
1679;SDS011;838;51.794;12.258;2023-07-13T05:18:34;3.33;;;2.67;;
1679;SDS011;838;51.794;12.258;2023-07-13T05:21:04;3.30;;;2.17;;
1679;SDS011;838;51.794;12.258;2023-07-13T05:23:31;4.77;;;2.83;;
1679;SDS011;838;51.794;12.258;2023-07-13T05:26:01;5.83;;;3.40;;
1679;SDS011;838;51.794;12.258;2023-07-13T05:28:28;4.70;;;3.13;;
1679;SDS011;838;51.794;12.258;2023-07-13T05:30:55;4.10;;;2.80;;
1679;SDS011;838;51.794;12.258;2023-07-13T05:33:24;3.40;;;2.50;;
1679;SDS011;838;51.794;12.258;2023-07-13T05:35:53;4.43;;;2.53;;
1679;SDS011;838;51.794;12.258;2023-07-13T05:38:19;4.80;;;2.77;;
1679;SDS011;838;51.794;12.258;2023-07-13T05:40:47;3.27;;;2.20;;
1679;SDS011;838;51.794;12.258;2023-07-13T05:43:12;6.00;;;2.90;;
1679;SDS011;838;51.794;12.258;2023-07-13T05:45:40;4.60;;;2.60;;
1679;SDS011;838;51.794;12.258;2023-07-13T05:48:09;4.33;;;2.80;;
1679;SDS011;838;51.794;12.258;2023-07-13T05:50:34;3.47;;;2.67;;
1679;SDS011;838;51.794;12.258;2023-07-13T05:53:06;3.63;;;2.07;;
1679;SDS011;838;51.794;12.258;2023-07-13T05:55:36;3.57;;;2.90;;
1679;SDS011;838;51.794;12.258;2023-07-13T05:58:16;7.13;;;2.33;;
1679;SDS011;838;51.794;12.258;2023-07-13T06:00:42;3.77;;;2.20;;
1679;SDS011;838;51.794;12.258;2023-07-13T06:03:16;4.10;;;2.13;;
1679;SDS011;838;51.794;12.258;2023-07-13T06:05:41;3.43;;;1.70;;
1679;SDS011;838;51.794;12.258;2023-07-13T06:08:07;4.90;;;1.90;;
1679;SDS011;838;51.794;12.258;2023-07-13T06:10:34;3.77;;;2.27;;
1679;SDS011;838;51.794;12.258;2023-07-13T06:13:00;3.40;;;1.90;;
1679;SDS011;838;51.794;12.258;2023-07-13T06:15:26;5.23;;;2.00;;
1679;SDS011;838;51.794;12.258;2023-07-13T06:17:52;3.63;;;2.27;;
1679;SDS011;838;51.794;12.258;2023-07-13T06:20:21;3.73;;;1.70;;
1679;SDS011;838;51.794;12.258;2023-07-13T06:22:46;8.40;;;2.03;;
1679;SDS011;838;51.794;12.258;2023-07-13T06:25:15;2.70;;;1.63;;
1679;SDS011;838;51.794;12.258;2023-07-13T06:27:42;3.33;;;1.80;;
1679;SDS011;838;51.794;12.258;2023-07-13T06:30:08;3.60;;;2.47;;
1679;SDS011;838;51.794;12.258;2023-07-13T06:32:38;3.50;;;1.70;;
1679;SDS011;838;51.794;12.258;2023-07-13T06:35:03;3.60;;;2.20;;
1679;SDS011;838;51.794;12.258;2023-07-13T06:37:30;5.00;;;2.40;;
1679;SDS011;838;51.794;12.258;2023-07-13T06:39:55;2.90;;;1.40;;
1679;SDS011;838;51.794;12.258;2023-07-13T06:42:21;3.37;;;1.80;;
1679;SDS011;838;51.794;12.258;2023-07-13T06:44:47;2.87;;;1.80;;
1679;SDS011;838;51.794;12.258;2023-07-13T06:47:13;3.77;;;1.93;;
1679;SDS011;838;51.794;12.258;2023-07-13T06:49:38;3.10;;;1.60;;
1679;SDS011;838;51.794;12.258;2023-07-13T06:52:10;3.43;;;1.50;;
1679;SDS011;838;51.794;12.258;2023-07-13T06:54:42;4.33;;;2.03;;
1679;SDS011;838;51.794;12.258;2023-07-13T06:57:08;4.20;;;1.80;;
1679;SDS011;838;51.794;12.258;2023-07-13T06:59:33;3.47;;;1.60;;
1679;SDS011;838;51.794;12.258;2023-07-13T07:01:59;3.10;;;1.60;;
1679;SDS011;838;51.794;12.258;2023-07-13T07:04:25;2.80;;;1.60;;
1679;SDS011;838;51.794;12.258;2023-07-13T07:06:51;3.20;;;1.30;;
1679;SDS011;838;51.794;12.258;2023-07-13T07:09:17;3.37;;;1.70;;
1679;SDS011;838;51.794;12.258;2023-07-13T07:11:43;3.57;;;1.40;;
1679;SDS011;838;51.794;12.258;2023-07-13T07:14:08;3.53;;;1.60;;
1679;SDS011;838;51.794;12.258;2023-07-13T07:16:34;3.73;;;2.10;;
1679;SDS011;838;51.794;12.258;2023-07-13T07:19:00;3.10;;;1.30;;
1679;SDS011;838;51.794;12.258;2023-07-13T07:21:26;5.70;;;1.57;;
1679;SDS011;838;51.794;12.258;2023-07-13T07:23:52;3.73;;;1.70;;
1679;SDS011;838;51.794;12.258;2023-07-13T07:26:18;5.10;;;1.57;;
1679;SDS011;838;51.794;12.258;2023-07-13T07:28:44;4.20;;;1.60;;
1679;SDS011;838;51.794;12.258;2023-07-13T07:31:10;2.97;;;1.60;;
1679;SDS011;838;51.794;12.258;2023-07-13T07:33:39;2.60;;;1.20;;
1679;SDS011;838;51.794;12.258;2023-07-13T07:36:05;3.80;;;1.43;;
1679;SDS011;838;51.794;12.258;2023-07-13T07:38:31;3.80;;;1.30;;
1679;SDS011;838;51.794;12.258;2023-07-13T07:40:57;2.60;;;1.30;;
1679;SDS011;838;51.794;12.258;2023-07-13T07:43:31;3.93;;;1.60;;
1679;SDS011;838;51.794;12.258;2023-07-13T07:45:57;7.23;;;1.20;;
1679;SDS011;838;51.794;12.258;2023-07-13T07:48:23;2.77;;;1.40;;
1679;SDS011;838;51.794;12.258;2023-07-13T07:50:49;3.10;;;1.10;;
1679;SDS011;838;51.794;12.258;2023-07-13T07:53:14;2.50;;;1.20;;
1679;SDS011;838;51.794;12.258;2023-07-13T07:55:40;2.30;;;1.20;;
1679;SDS011;838;51.794;12.258;2023-07-13T07:58:06;2.40;;;1.00;;
1679;SDS011;838;51.794;12.258;2023-07-13T08:00:32;2.27;;;1.13;;
1679;SDS011;838;51.794;12.258;2023-07-13T08:03:00;3.23;;;1.30;;
1679;SDS011;838;51.794;12.258;2023-07-13T08:05:29;2.30;;;1.03;;
1679;SDS011;838;51.794;12.258;2023-07-13T08:07:55;3.40;;;1.23;;
1679;SDS011;838;51.794;12.258;2023-07-13T08:10:21;2.30;;;1.10;;
1679;SDS011;838;51.794;12.258;2023-07-13T08:12:47;2.93;;;1.10;;
1679;SDS011;838;51.794;12.258;2023-07-13T08:15:16;2.73;;;1.10;;
1679;SDS011;838;51.794;12.258;2023-07-13T08:17:45;2.60;;;1.00;;
1679;SDS011;838;51.794;12.258;2023-07-13T08:20:12;3.60;;;1.20;;
1679;SDS011;838;51.794;12.258;2023-07-13T08:22:37;3.73;;;1.00;;
1679;SDS011;838;51.794;12.258;2023-07-13T08:25:11;2.97;;;0.90;;
1679;SDS011;838;51.794;12.258;2023-07-13T08:27:36;5.83;;;1.23;;
1679;SDS011;838;51.794;12.258;2023-07-13T08:30:02;4.50;;;0.93;;
1679;SDS011;838;51.794;12.258;2023-07-13T08:32:33;2.50;;;1.00;;
1679;SDS011;838;51.794;12.258;2023-07-13T08:35:01;3.80;;;1.20;;
1679;SDS011;838;51.794;12.258;2023-07-13T08:37:27;2.57;;;1.10;;
1679;SDS011;838;51.794;12.258;2023-07-13T08:39:53;5.13;;;1.07;;
1679;SDS011;838;51.794;12.258;2023-07-13T08:47:45;4.40;;;1.50;;
1679;SDS011;838;51.794;12.258;2023-07-13T08:50:35;3.23;;;1.20;;
1679;SDS011;838;51.794;12.258;2023-07-13T08:53:14;4.43;;;1.67;;
1679;SDS011;838;51.794;12.258;2023-07-13T08:55:41;5.43;;;1.83;;
1679;SDS011;838;51.794;12.258;2023-07-13T09:03:22;3.13;;;1.30;;
1679;SDS011;838;51.794;12.258;2023-07-13T09:05:53;4.50;;;1.87;;
1679;SDS011;838;51.794;12.258;2023-07-13T09:08:29;2.70;;;1.60;;
1679;SDS011;838;51.794;12.258;2023-07-13T09:11:41;6.23;;;1.77;;
1679;SDS011;838;51.794;12.258;2023-07-13T09:14:20;3.03;;;1.40;;
1679;SDS011;838;51.794;12.258;2023-07-13T09:16:56;3.30;;;1.80;;
1679;SDS011;838;51.794;12.258;2023-07-13T09:19:26;3.07;;;1.77;;
1679;SDS011;838;51.794;12.258;2023-07-13T09:21:58;4.20;;;1.60;;
1679;SDS011;838;51.794;12.258;2023-07-13T09:26:58;5.13;;;1.97;;
1679;SDS011;838;51.794;12.258;2023-07-13T09:29:29;3.30;;;1.43;;
1679;SDS011;838;51.794;12.258;2023-07-13T09:32:02;4.70;;;1.40;;
1679;SDS011;838;51.794;12.258;2023-07-13T09:34:32;4.87;;;1.53;;
1679;SDS011;838;51.794;12.258;2023-07-13T09:37:02;3.37;;;1.40;;
1679;SDS011;838;51.794;12.258;2023-07-13T09:39:30;2.80;;;1.10;;
1679;SDS011;838;51.794;12.258;2023-07-13T09:44:39;2.60;;;1.10;;
1679;SDS011;838;51.794;12.258;2023-07-13T09:47:16;2.93;;;1.17;;
1679;SDS011;838;51.794;12.258;2023-07-13T09:49:57;3.43;;;1.23;;
1679;SDS011;838;51.794;12.258;2023-07-13T09:52:25;2.60;;;1.00;;
1679;SDS011;838;51.794;12.258;2023-07-13T09:54:55;3.13;;;1.67;;
1679;SDS011;838;51.794;12.258;2023-07-13T09:57:27;5.20;;;1.63;;
1679;SDS011;838;51.794;12.258;2023-07-13T09:59:54;5.63;;;1.53;;
1679;SDS011;838;51.794;12.258;2023-07-13T10:02:29;4.23;;;1.37;;
1679;SDS011;838;51.794;12.258;2023-07-13T10:05:06;3.30;;;1.50;;
1679;SDS011;838;51.794;12.258;2023-07-13T10:07:40;5.87;;;1.93;;
1679;SDS011;838;51.794;12.258;2023-07-13T10:10:16;4.10;;;1.47;;
1679;SDS011;838;51.794;12.258;2023-07-13T10:12:47;3.00;;;1.20;;
1679;SDS011;838;51.794;12.258;2023-07-13T10:15:16;3.67;;;1.40;;
1679;SDS011;838;51.794;12.258;2023-07-13T10:17:47;2.53;;;1.33;;
1679;SDS011;838;51.794;12.258;2023-07-13T10:20:15;3.47;;;1.33;;
1679;SDS011;838;51.794;12.258;2023-07-13T10:25:28;2.93;;;1.07;;
1679;SDS011;838;51.794;12.258;2023-07-13T10:28:02;2.80;;;1.20;;
1679;SDS011;838;51.794;12.258;2023-07-13T10:30:54;2.77;;;1.40;;
1679;SDS011;838;51.794;12.258;2023-07-13T10:33:23;2.10;;;0.93;;
1679;SDS011;838;51.794;12.258;2023-07-13T10:35:55;2.40;;;1.20;;
1679;SDS011;838;51.794;12.258;2023-07-13T10:38:41;2.10;;;1.20;;
1679;SDS011;838;51.794;12.258;2023-07-13T10:41:12;2.63;;;1.20;;
1679;SDS011;838;51.794;12.258;2023-07-13T10:43:43;3.23;;;1.47;;
1679;SDS011;838;51.794;12.258;2023-07-13T10:46:15;4.17;;;1.63;;
1679;SDS011;838;51.794;12.258;2023-07-13T10:48:45;3.90;;;1.77;;
1679;SDS011;838;51.794;12.258;2023-07-13T10:51:14;2.30;;;1.17;;
1679;SDS011;838;51.794;12.258;2023-07-13T10:53:42;2.50;;;1.10;;
1679;SDS011;838;51.794;12.258;2023-07-13T10:56:28;2.23;;;1.13;;
1679;SDS011;838;51.794;12.258;2023-07-13T10:59:28;2.43;;;1.27;;
1679;SDS011;838;51.794;12.258;2023-07-13T11:04:48;1.90;;;0.90;;
1679;SDS011;838;51.794;12.258;2023-07-13T11:07:27;1.87;;;0.80;;
1679;SDS011;838;51.794;12.258;2023-07-13T11:10:03;2.00;;;0.70;;
1679;SDS011;838;51.794;12.258;2023-07-13T11:12:50;1.70;;;0.50;;
1679;SDS011;838;51.794;12.258;2023-07-13T11:15:30;2.13;;;0.80;;
1679;SDS011;838;51.794;12.258;2023-07-13T11:18:19;1.90;;;0.70;;
1679;SDS011;838;51.794;12.258;2023-07-13T11:20:48;1.87;;;0.60;;
1679;SDS011;838;51.794;12.258;2023-07-13T11:25:43;1.80;;;0.57;;
1679;SDS011;838;51.794;12.258;2023-07-13T11:30:39;2.40;;;0.60;;
1679;SDS011;838;51.794;12.258;2023-07-13T11:38:39;3.80;;;1.47;;
1679;SDS011;838;51.794;12.258;2023-07-13T11:41:31;1.90;;;0.73;;
1679;SDS011;838;51.794;12.258;2023-07-13T11:44:17;2.23;;;0.80;;
1679;SDS011;838;51.794;12.258;2023-07-13T11:46:52;2.93;;;0.90;;
1679;SDS011;838;51.794;12.258;2023-07-13T11:49:23;2.83;;;0.60;;
1679;SDS011;838;51.794;12.258;2023-07-13T11:51:52;2.57;;;0.87;;
1679;SDS011;838;51.794;12.258;2023-07-13T11:56:55;2.30;;;0.70;;
1679;SDS011;838;51.794;12.258;2023-07-13T11:59:25;2.70;;;0.63;;
1679;SDS011;838;51.794;12.258;2023-07-13T12:01:52;2.60;;;0.50;;
1679;SDS011;838;51.794;12.258;2023-07-13T12:04:21;1.73;;;0.57;;
1679;SDS011;838;51.794;12.258;2023-07-13T12:06:57;2.20;;;0.60;;
1679;SDS011;838;51.794;12.258;2023-07-13T12:09:29;3.80;;;0.97;;
1679;SDS011;838;51.794;12.258;2023-07-13T12:11:56;4.77;;;1.07;;
1679;SDS011;838;51.794;12.258;2023-07-13T12:14:25;1.93;;;0.80;;
1679;SDS011;838;51.794;12.258;2023-07-13T12:16:51;3.03;;;0.70;;
1679;SDS011;838;51.794;12.258;2023-07-13T12:21:54;3.33;;;1.00;;
1679;SDS011;838;51.794;12.258;2023-07-13T12:24:22;2.33;;;0.80;;
1679;SDS011;838;51.794;12.258;2023-07-13T12:29:19;2.03;;;0.73;;
1679;SDS011;838;51.794;12.258;2023-07-13T12:31:45;1.73;;;0.60;;
1679;SDS011;838;51.794;12.258;2023-07-13T12:36:48;2.10;;;0.80;;
1679;SDS011;838;51.794;12.258;2023-07-13T12:39:18;2.40;;;0.80;;
1679;SDS011;838;51.794;12.258;2023-07-13T12:41:45;1.60;;;0.47;;
1679;SDS011;838;51.794;12.258;2023-07-13T12:44:12;2.50;;;0.77;;
1679;SDS011;838;51.794;12.258;2023-07-13T12:47:03;2.77;;;0.53;;
1679;SDS011;838;51.794;12.258;2023-07-13T12:49:32;2.90;;;0.80;;
1679;SDS011;838;51.794;12.258;2023-07-13T12:52:03;2.13;;;0.60;;
1679;SDS011;838;51.794;12.258;2023-07-13T12:54:38;2.90;;;0.67;;
1679;SDS011;838;51.794;12.258;2023-07-13T12:57:04;1.90;;;0.77;;
1679;SDS011;838;51.794;12.258;2023-07-13T12:59:36;2.67;;;0.73;;
1679;SDS011;838;51.794;12.258;2023-07-13T13:02:02;2.80;;;0.87;;
1679;SDS011;838;51.794;12.258;2023-07-13T13:04:43;2.10;;;0.60;;
1679;SDS011;838;51.794;12.258;2023-07-13T13:07:09;3.20;;;0.77;;
1679;SDS011;838;51.794;12.258;2023-07-13T13:09:38;2.90;;;0.87;;
1679;SDS011;838;51.794;12.258;2023-07-13T13:12:04;2.20;;;0.70;;
1679;SDS011;838;51.794;12.258;2023-07-13T13:14:31;4.37;;;1.30;;
1679;SDS011;838;51.794;12.258;2023-07-13T13:17:00;2.53;;;0.80;;
1679;SDS011;838;51.794;12.258;2023-07-13T13:19:28;2.47;;;0.73;;
1679;SDS011;838;51.794;12.258;2023-07-13T13:21:55;1.90;;;0.70;;
1679;SDS011;838;51.794;12.258;2023-07-13T13:24:22;2.50;;;1.00;;
1679;SDS011;838;51.794;12.258;2023-07-13T13:26:51;4.07;;;1.37;;
1679;SDS011;838;51.794;12.258;2023-07-13T13:29:21;2.30;;;0.70;;
1679;SDS011;838;51.794;12.258;2023-07-13T13:31:51;2.30;;;0.73;;
1679;SDS011;838;51.794;12.258;2023-07-13T13:34:19;2.30;;;0.73;;
1679;SDS011;838;51.794;12.258;2023-07-13T13:36:48;1.80;;;0.60;;
1679;SDS011;838;51.794;12.258;2023-07-13T13:39:24;2.80;;;1.07;;
1679;SDS011;838;51.794;12.258;2023-07-13T13:41:57;1.83;;;0.53;;
1679;SDS011;838;51.794;12.258;2023-07-13T13:44:23;3.07;;;0.77;;
1679;SDS011;838;51.794;12.258;2023-07-13T13:46:50;1.60;;;0.40;;
1679;SDS011;838;51.794;12.258;2023-07-13T13:49:23;2.17;;;0.43;;
1679;SDS011;838;51.794;12.258;2023-07-13T13:51:51;2.03;;;0.67;;
1679;SDS011;838;51.794;12.258;2023-07-13T13:54:18;2.17;;;0.80;;
1679;SDS011;838;51.794;12.258;2023-07-13T13:56:49;1.90;;;0.47;;
1679;SDS011;838;51.794;12.258;2023-07-13T13:59:17;2.17;;;0.60;;
1679;SDS011;838;51.794;12.258;2023-07-13T14:01:44;3.07;;;1.23;;
1679;SDS011;838;51.794;12.258;2023-07-13T14:04:14;2.57;;;0.90;;
1679;SDS011;838;51.794;12.258;2023-07-13T14:06:45;2.47;;;0.77;;
1679;SDS011;838;51.794;12.258;2023-07-13T14:09:12;1.60;;;0.40;;
1679;SDS011;838;51.794;12.258;2023-07-13T14:11:40;2.10;;;0.50;;
1679;SDS011;838;51.794;12.258;2023-07-13T14:14:08;2.23;;;0.83;;
1679;SDS011;838;51.794;12.258;2023-07-13T14:16:44;2.30;;;0.57;;
1679;SDS011;838;51.794;12.258;2023-07-13T14:19:11;1.80;;;0.50;;
1679;SDS011;838;51.794;12.258;2023-07-13T14:21:39;2.37;;;0.90;;
1679;SDS011;838;51.794;12.258;2023-07-13T14:24:08;2.23;;;0.60;;
1679;SDS011;838;51.794;12.258;2023-07-13T14:26:36;1.83;;;0.70;;
1679;SDS011;838;51.794;12.258;2023-07-13T14:29:04;1.87;;;0.67;;
1679;SDS011;838;51.794;12.258;2023-07-13T14:31:38;3.20;;;0.97;;
1679;SDS011;838;51.794;12.258;2023-07-13T14:34:04;2.93;;;0.70;;
1679;SDS011;838;51.794;12.258;2023-07-13T14:36:30;2.10;;;0.60;;
1679;SDS011;838;51.794;12.258;2023-07-13T14:39:19;2.30;;;0.80;;
1679;SDS011;838;51.794;12.258;2023-07-13T14:41:49;2.43;;;0.70;;
1679;SDS011;838;51.794;12.258;2023-07-13T14:44:30;2.10;;;0.80;;
1679;SDS011;838;51.794;12.258;2023-07-13T14:47:00;2.13;;;0.70;;
1679;SDS011;838;51.794;12.258;2023-07-13T14:52:01;3.30;;;0.70;;
1679;SDS011;838;51.794;12.258;2023-07-13T14:54:35;2.30;;;0.53;;
1679;SDS011;838;51.794;12.258;2023-07-13T14:57:08;3.00;;;0.70;;
1679;SDS011;838;51.794;12.258;2023-07-13T14:59:41;4.57;;;1.20;;
1679;SDS011;838;51.794;12.258;2023-07-13T15:02:15;2.17;;;0.60;;
1679;SDS011;838;51.794;12.258;2023-07-13T15:04:54;2.23;;;0.60;;
1679;SDS011;838;51.794;12.258;2023-07-13T15:07:20;3.03;;;1.20;;
1679;SDS011;838;51.794;12.258;2023-07-13T15:09:48;2.63;;;0.60;;
1679;SDS011;838;51.794;12.258;2023-07-13T15:12:14;2.13;;;1.00;;
1679;SDS011;838;51.794;12.258;2023-07-13T15:14:39;2.10;;;0.87;;
1679;SDS011;838;51.794;12.258;2023-07-13T15:17:08;2.73;;;1.20;;
1679;SDS011;838;51.794;12.258;2023-07-13T15:20:29;2.37;;;0.73;;
1679;SDS011;838;51.794;12.258;2023-07-13T15:23:00;1.87;;;0.70;;
1679;SDS011;838;51.794;12.258;2023-07-13T15:25:27;2.93;;;0.50;;
1679;SDS011;838;51.794;12.258;2023-07-13T15:27:55;3.97;;;0.80;;
1679;SDS011;838;51.794;12.258;2023-07-13T15:30:22;2.67;;;0.80;;
1679;SDS011;838;51.794;12.258;2023-07-13T15:32:53;2.30;;;0.70;;
1679;SDS011;838;51.794;12.258;2023-07-13T15:35:21;3.27;;;0.87;;
1679;SDS011;838;51.794;12.258;2023-07-13T15:37:51;2.00;;;0.50;;
1679;SDS011;838;51.794;12.258;2023-07-13T15:40:18;1.80;;;0.57;;
1679;SDS011;838;51.794;12.258;2023-07-13T15:42:46;2.93;;;1.00;;
1679;SDS011;838;51.794;12.258;2023-07-13T15:45:17;2.20;;;0.83;;
1679;SDS011;838;51.794;12.258;2023-07-13T15:47:45;2.73;;;0.83;;
1679;SDS011;838;51.794;12.258;2023-07-13T15:50:12;2.80;;;0.93;;
1679;SDS011;838;51.794;12.258;2023-07-13T15:52:53;1.70;;;0.50;;
1679;SDS011;838;51.794;12.258;2023-07-13T15:55:23;1.80;;;0.60;;
1679;SDS011;838;51.794;12.258;2023-07-13T15:57:50;2.67;;;0.53;;
1679;SDS011;838;51.794;12.258;2023-07-13T16:00:21;1.80;;;0.53;;
1679;SDS011;838;51.794;12.258;2023-07-13T16:02:49;5.37;;;0.97;;
1679;SDS011;838;51.794;12.258;2023-07-13T16:05:15;3.13;;;1.00;;
1679;SDS011;838;51.794;12.258;2023-07-13T16:07:43;3.13;;;0.77;;
1679;SDS011;838;51.794;12.258;2023-07-13T16:10:16;3.17;;;0.77;;
1679;SDS011;838;51.794;12.258;2023-07-13T16:12:45;2.10;;;0.67;;
1679;SDS011;838;51.794;12.258;2023-07-13T16:15:16;1.93;;;0.60;;
1679;SDS011;838;51.794;12.258;2023-07-13T16:17:44;1.90;;;0.70;;